Pagina principale
METAR-TAF:

METAR-TAF

Aeroporti :

Morlaix, Francia

latitudine: 48-36N, longitudine: 3-49W, altezza: 84 m

Osservazione

Il bollettino è stato emesso 1 ora e 1 minuti fa, alle 18:00 UTC
Vento 6 kt da sud/sud-est
Temperature 8°C
Umidità 81%
Pressione 995 hPa
Visibilità 10 km o più
Nuvoloso ad un'altezza di 3500 ft
Nuvoloso ad un'altezza di 4500 ft
Nuvoloso ad un'altezza di 23000 ft

METAR: LFRU 211800Z AUTO 16006KT 9999 BKN035 BKN045 BKN230 08/05 Q0995

Ora: 20:01 (19:01 UTC)


TAF: mancante

Osservazioni e previsioni meteorologiche di più di 4000 aeroporti (messaggi METAR e TAF).

Le stazioni disponibili sono rappresentate dai dischi gialli e rossi sulla carta.

Puntare il mouse per vedere il nome della stazione.

Clicca sopra per visualizzare le osservazioni e previsioni meteorologiche.

Per cambiare la mappa : fare clic sui pulsanti verdi con una croce nera per ingrandire, il pulsante verde con un trattino per diminuire, o sulla freccia verde per le mappe adiacenti.


METAR-TAF: